• Join FlightAware (Why Join?)
  • Login
  • US Flag 
07:36AM EDT


 

Airport Tracker/Info


-or-


 

Live Flight TrackerFlight Track Log ✈ N785JP ✈ 06-May-2013 ✈ KSYR - KSHD

Flight Track Log - Related Links

Times and Time Zones

All times are in EDT time to prevent confusion due to time zone crossing. See the N785JP flight status page for this flight to view local times or setup timezone preferences in your user account.

Time Position Orientation Groundspeed Altitude Reporting Facility
EDT Latitude Longitude Course Direction KTS MPH feet Rate Location/Type
02:11PM 43.1211 -75.7628 282° West 235 270 7,300  Level Boston Center
02:12PM 43.1350 -75.8517 282° West 235 270 6,200 -1,320 Descending Boston Center
02:13PM 43.1453 -75.9264 281° West 227 261 4,800 -1,680 Descending Boston Center
02:14PM 43.1550 -76.0153 279° West 216 249 3,000 -1,320 Descending Boston Center
02:15PM 43.1631 -76.0897 278° West 185 213 2,200 -900 Descending Boston Center
02:16PM 43.1450 -76.1369 242° Southwest 132 152 1,300 180 Descending Boston Center
02:18PM 43.0876 -76.1721 204° Southwest  Level Estimated
02:25PM 42.7967 -76.3492 204° Southwest  Level Estimated
02:26PM 42.7552 -76.3744 204° Southwest  Level Estimated
02:27PM 42.7136 -76.3995 204° Southwest  Level Estimated
02:28PM 42.6720 -76.4246 204° Southwest  Level Estimated
02:29PM 42.6304 -76.4497 204° Southwest  Level Estimated
02:30PM 42.5888 -76.4747 204° Southwest  Level Estimated
02:31PM 42.5473 -76.4997 204° Southwest  Level Estimated
02:32PM 42.5057 -76.5246 204° Southwest  Level Estimated
02:33PM 42.4641 -76.5496 204° Southwest  Level Estimated
02:34PM 42.4224 -76.5745 204° Southwest  Level Estimated
02:35PM 42.3808 -76.5993 204° Southwest  Level Estimated
02:36PM 42.3392 -76.6242 204° Southwest  Level Estimated
02:37PM 42.2976 -76.6489 204° Southwest  Level Estimated
02:38PM 42.2559 -76.6737 204° Southwest  Level Estimated
02:39PM 42.2143 -76.6984 204° Southwest  Level Estimated
02:40PM 42.1727 -76.7231 204° Southwest  Level Estimated
02:41PM 42.1310 -76.7478 204° Southwest  Level Estimated
02:42PM 42.0894 -76.7724 204° Southwest  Level Estimated
02:43PM 42.0477 -76.7970 204° Southwest  Level Estimated
02:44PM 42.0060 -76.8216 204° Southwest  Level Estimated
02:45PM 41.9644 -76.8462 204° Southwest  Level Estimated
02:46PM 41.9227 -76.8707 204° Southwest  Level Estimated
02:47PM 41.8810 -76.8951 204° Southwest  Level Estimated
02:48PM 41.8393 -76.9196 204° Southwest  Level Estimated
02:49PM 41.8013 -76.9419 204° Southwest  Level Estimated
02:50PM 41.7632 -76.9641 204° Southwest  Level Estimated
02:51PM 41.7251 -76.9864 204° Southwest  Level Estimated
02:52PM 41.6870 -77.0086 204° Southwest  Level Estimated
02:53PM 41.6488 -77.0308 204° Southwest  Level Estimated
02:54PM 41.6107 -77.0530 204° Southwest  Level Estimated
02:55PM 41.5726 -77.0751 203° Southwest  Level Estimated
02:56PM 41.5345 -77.0972 203° Southwest  Level Estimated
02:57PM 41.4964 -77.1193 203° Southwest  Level Estimated
02:58PM 41.4583 -77.1414 203° Southwest  Level Estimated
02:59PM 41.4201 -77.1634 203° Southwest  Level Estimated
03:00PM 41.3820 -77.1854 203° Southwest  Level Estimated
03:01PM 41.3438 -77.2074 203° Southwest  Level Estimated
03:02PM 41.3057 -77.2294 203° Southwest  Level Estimated
03:03PM 41.2676 -77.2513 203° Southwest  Level Estimated
03:04PM 41.2294 -77.2732 203° Southwest  Level Estimated
03:05PM 41.1912 -77.2951 203° Southwest  Level Estimated
03:06PM 41.1531 -77.3170 203° Southwest  Level Estimated
03:07PM 41.1149 -77.3388 203° Southwest  Level Estimated
03:08PM 41.0768 -77.3606 203° Southwest  Level Estimated
03:09PM 41.0386 -77.3824 203° Southwest  Level Estimated
03:10PM 41.0004 -77.4042 203° Southwest  Level Estimated
03:11PM 40.9622 -77.4259 203° Southwest  Level Estimated
03:12PM 40.9240 -77.4476 203° Southwest  Level Estimated
03:13PM 40.8859 -77.4693 203° Southwest  Level Estimated
03:14PM 40.8477 -77.4909 203° Southwest  Level Estimated
03:15PM 40.8095 -77.5126 203° Southwest  Level Estimated
03:16PM 40.7713 -77.5342 203° Southwest  Level Estimated
03:17PM 40.7331 -77.5557 203° Southwest  Level Estimated
03:18PM 40.6949 -77.5773 203° Southwest  Level Estimated
03:19PM 40.6567 -77.5988 203° Southwest  Level Estimated
03:20PM 40.6184 -77.6204 203° Southwest  Level Estimated
03:21PM 40.5802 -77.6418 203° Southwest  Level Estimated
03:22PM 40.5420 -77.6633 203° Southwest  Level Estimated
03:23PM 40.5038 -77.6847 203° Southwest  Level Estimated
03:24PM 40.4655 -77.7061 203° Southwest  Level Estimated
03:25PM 40.4273 -77.7275 203° Southwest  Level Estimated
03:26PM 40.3890 -77.7489 203° Southwest  Level Estimated
03:27PM 40.3508 -77.7702 203° Southwest  Level Estimated
03:28PM 40.3126 -77.7915 203° Southwest  Level Estimated
03:29PM 40.2743 -77.8128 203° Southwest  Level Estimated
03:30PM 40.2360 -77.8341 203° Southwest  Level Estimated
03:31PM 40.1978 -77.8553 203° Southwest  Level Estimated
03:32PM 40.1595 -77.8765 203° Southwest  Level Estimated
03:33PM 40.1213 -77.8977 203° Southwest  Level Estimated
03:34PM 40.0830 -77.9189 203° Southwest  Level Estimated
03:35PM 40.0447 -77.9401 203° Southwest  Level Estimated
03:36PM 40.0064 -77.9612 203° Southwest  Level Estimated
03:36PM 40.3031 -77.4667 203° Southwest 226 260 20,000  Level New York Center
03:37PM 39.9682 -77.9823 203° Southwest  Level Estimated
03:37PM 40.2494 -77.4914 199° South 220 253 20,000  Level New York Center
03:38PM 39.9299 -78.0033 203° Southwest  Level Estimated
03:38PM 40.1917 -77.5156 198° South 220 253 20,000  Level New York Center
03:39PM 39.8916 -78.0244 203° Southwest  Level Estimated
03:39PM 40.1383 -77.5375 197° South 214 246 20,000  Level New York Center
03:40PM 39.8533 -78.0454 203° Southwest  Level Estimated
03:40PM 40.0828 -77.5594 197° South 214 246 20,000  Level New York Center
03:41PM 39.8150 -78.0664 203° Southwest  Level Estimated
03:41PM 39.9928 -77.5956 197° South 213 245 20,000  Level Washington Center
03:42PM 39.9364 -77.6181 197° South 208 239 20,000  Level Washington Center
03:44PM 39.8937 -77.6516 211° Southwest  Level Estimated
03:44PM 39.8333 -77.6639 211° Southwest 208 239 20,000  Level Washington Center
03:45PM 39.7811 -77.6839 196° South 208 239 20,000  Level Washington Center
03:46PM 39.7242 -77.7094 199° South 208 239 20,000  Level Washington Center
03:48PM 39.6576 -77.7337 196° South  Level FlightAware Approximate
03:48PM 39.6108 -77.7572 196° South 208 239 20,000  Level Washington Center
03:49PM 39.5542 -77.7797 197° South 213 245 20,000  Level Washington Center
03:50PM 39.4975 -77.8022 197° South 213 245 20,000  Level Washington Center
03:51PM 39.4408 -77.8275 199° South 213 245 20,000  Level Washington Center
03:52PM 39.3819 -77.8525 198° South 213 245 20,000  Level Washington Center
03:53PM 39.3311 -77.8992 215° Southwest 213 245 20,000  Level Washington Center
03:55PM 39.2743 -77.9501 215° Southwest  Level FlightAware Approximate
03:55PM 39.2333 -77.9953 215° Southwest 226 260 20,000  Level Washington Center
03:56PM 39.1825 -78.0417 215° Southwest 226 260 20,000  Level Washington Center
03:57PM 39.1378 -78.0856 217° Southwest 226 260 20,000 -180 Level Washington Center
03:59PM 39.0761 -78.1233 215° Southwest  Level FlightAware Approximate
04:00PM 38.9889 -78.2247 218° Southwest 226 260 19,300  Level Washington Center
04:03PM 38.8865 -78.3207 218° Southwest  Level Estimated
04:05PM 38.7117 -78.4864 218° Southwest 247 284 15,200  Level Washington Center
04:06PM 38.7464 -78.4203 218° Southwest  Level FlightAware Approximate
04:07PM 38.6000 -78.6000 219° Southwest 253 291 13,100  Level Potomac TRACON
04:09PM 38.5318 -78.6182 218° Southwest  Level FlightAware Approximate
04:09PM 38.4942 -78.6900 218° Southwest 252 290 10,400  Level Washington Center
04:10PM 38.5698 -78.5803 218° Southwest  Level FlightAware Approximate
04:11PM 38.5242 -78.6258 218° Southwest  Level FlightAware Approximate
04:11PM 38.3667 -78.7833 210° Southwest 236 272 6,900  Level Potomac TRACON
04:12PM 38.3167 -78.8000 195° South 216 249 5,600 -960 Descending Potomac TRACON
04:13PM 38.2633 -78.8153 193° South 221 254 5,000 -360 Descending Washington Center
04:14PM 38.2122 -78.8581 213° Southwest 208 239 5,000  Level Washington Center
04:15PM 38.1736 -78.9014 221° Southwest 203 234 5,000  Level Washington Center
04:17PM 38.1000 -78.9833 221° Southwest 187 215 5,000  Level Potomac TRACON
04:18PM 38.1000 -79.0333 270° West 213 245 5,000  Level Potomac TRACON
04:23PM 38.1787 -79.0116 55° Northeast  Level FlightAware Approximate
04:30PM 38.2500 -78.8833 55° Northeast  Level FlightAware Approximate
04:31PM 38.2638 -78.8964 55° Northeast  Level Estimated
04:32PM 38.2638 -78.8964 55° Northeast  Level Estimated
04:33PM 38.2638 -78.8964 55° Northeast  Level Estimated
04:34PM 38.2638 -78.8964 55° Northeast  Level Estimated
04:35PM 38.2638 -78.8964 55° Northeast  Level Estimated
04:36PM 38.2638 -78.8964 55° Northeast  Level Estimated
04:37PM 38.2638 -78.8964 55° Northeast  Level Estimated